sensor_id;sensor_type;location;lat;lon;timestamp;P1;durP1;ratioP1;P2;durP2;ratioP2
21334;SDS011;10826;52.536;13.432;2022-09-09T00:01:59;6.43;;;5.87;;
21334;SDS011;10826;52.536;13.432;2022-09-09T00:04:43;7.13;;;6.20;;
21334;SDS011;10826;52.536;13.432;2022-09-09T00:07:37;6.63;;;6.13;;
21334;SDS011;10826;52.536;13.432;2022-09-09T00:21:11;6.63;;;6.13;;
21334;SDS011;10826;52.536;13.432;2022-09-09T00:23:52;6.70;;;6.20;;
21334;SDS011;10826;52.536;13.432;2022-09-09T00:32:16;7.27;;;6.77;;
21334;SDS011;10826;52.536;13.432;2022-09-09T00:35:46;6.63;;;6.13;;
21334;SDS011;10826;52.536;13.432;2022-09-09T00:37:57;6.73;;;6.23;;
21334;SDS011;10826;52.536;13.432;2022-09-09T00:40:38;7.83;;;6.60;;
21334;SDS011;10826;52.536;13.432;2022-09-09T00:46:13;6.43;;;6.00;;
21334;SDS011;10826;52.536;13.432;2022-09-09T00:58:17;7.93;;;7.23;;
21334;SDS011;10826;52.536;13.432;2022-09-09T01:00:50;7.43;;;6.83;;
21334;SDS011;10826;52.536;13.432;2022-09-09T01:03:46;7.37;;;6.70;;
21334;SDS011;10826;52.536;13.432;2022-09-09T01:06:26;7.30;;;6.70;;
21334;SDS011;10826;52.536;13.432;2022-09-09T01:12:14;6.70;;;6.20;;
21334;SDS011;10826;52.536;13.432;2022-09-09T01:15:22;7.53;;;6.93;;
21334;SDS011;10826;52.536;13.432;2022-09-09T01:18:08;7.73;;;7.13;;
21334;SDS011;10826;52.536;13.432;2022-09-09T01:20:54;8.13;;;7.53;;
21334;SDS011;10826;52.536;13.432;2022-09-09T01:29:14;7.40;;;6.90;;
21334;SDS011;10826;52.536;13.432;2022-09-09T01:31:53;8.20;;;7.60;;
21334;SDS011;10826;52.536;13.432;2022-09-09T01:34:26;8.63;;;7.90;;
21334;SDS011;10826;52.536;13.432;2022-09-09T01:37:10;8.70;;;7.77;;
21334;SDS011;10826;52.536;13.432;2022-09-09T01:39:38;8.03;;;7.43;;
21334;SDS011;10826;52.536;13.432;2022-09-09T01:42:10;7.90;;;7.40;;
21334;SDS011;10826;52.536;13.432;2022-09-09T01:44:41;7.67;;;6.97;;
21334;SDS011;10826;52.536;13.432;2022-09-09T01:47:08;8.70;;;7.80;;
21334;SDS011;10826;52.536;13.432;2022-09-09T01:49:34;7.90;;;7.37;;
21334;SDS011;10826;52.536;13.432;2022-09-09T01:52:01;6.97;;;6.40;;
21334;SDS011;10826;52.536;13.432;2022-09-09T01:54:29;7.93;;;7.33;;
21334;SDS011;10826;52.536;13.432;2022-09-09T02:02:43;6.73;;;6.23;;
21334;SDS011;10826;52.536;13.432;2022-09-09T02:05:55;8.07;;;7.47;;
21334;SDS011;10826;52.536;13.432;2022-09-09T02:08:47;6.93;;;6.43;;
21334;SDS011;10826;52.536;13.432;2022-09-09T02:11:21;7.37;;;6.77;;
21334;SDS011;10826;52.536;13.432;2022-09-09T02:13:51;7.77;;;7.17;;
21334;SDS011;10826;52.536;13.432;2022-09-09T02:21:56;7.57;;;6.97;;
21334;SDS011;10826;52.536;13.432;2022-09-09T02:24:27;6.97;;;6.47;;
21334;SDS011;10826;52.536;13.432;2022-09-09T02:26:58;7.37;;;6.80;;
21334;SDS011;10826;52.536;13.432;2022-09-09T02:29:33;7.43;;;6.80;;
21334;SDS011;10826;52.536;13.432;2022-09-09T02:32:14;6.60;;;6.00;;
21334;SDS011;10826;52.536;13.432;2022-09-09T02:34:45;7.03;;;6.40;;
21334;SDS011;10826;52.536;13.432;2022-09-09T02:37:25;6.57;;;6.00;;
21334;SDS011;10826;52.536;13.432;2022-09-09T02:40:02;7.60;;;7.00;;
21334;SDS011;10826;52.536;13.432;2022-09-09T02:42:30;7.40;;;6.70;;
21334;SDS011;10826;52.536;13.432;2022-09-09T02:44:56;6.47;;;5.97;;
21334;SDS011;10826;52.536;13.432;2022-09-09T02:47:29;6.63;;;6.13;;
21334;SDS011;10826;52.536;13.432;2022-09-09T02:55:39;7.30;;;6.80;;
21334;SDS011;10826;52.536;13.432;2022-09-09T02:58:16;6.20;;;5.70;;
21334;SDS011;10826;52.536;13.432;2022-09-09T03:00:53;6.50;;;5.53;;
21334;SDS011;10826;52.536;13.432;2022-09-09T03:03:19;6.63;;;6.13;;
21334;SDS011;10826;52.536;13.432;2022-09-09T03:05:47;6.73;;;6.20;;
21334;SDS011;10826;52.536;13.432;2022-09-09T03:08:15;6.57;;;6.03;;
21334;SDS011;10826;52.536;13.432;2022-09-09T03:10:42;7.13;;;6.43;;
21334;SDS011;10826;52.536;13.432;2022-09-09T03:13:09;6.80;;;6.30;;
21334;SDS011;10826;52.536;13.432;2022-09-09T03:15:36;6.43;;;5.93;;
21334;SDS011;10826;52.536;13.432;2022-09-09T03:18:02;6.30;;;5.90;;
21334;SDS011;10826;52.536;13.432;2022-09-09T03:20:29;6.67;;;6.07;;
21334;SDS011;10826;52.536;13.432;2022-09-09T03:22:56;6.90;;;5.97;;
21334;SDS011;10826;52.536;13.432;2022-09-09T03:25:25;6.23;;;5.73;;
21334;SDS011;10826;52.536;13.432;2022-09-09T03:27:52;5.80;;;5.40;;
21334;SDS011;10826;52.536;13.432;2022-09-09T03:30:20;7.20;;;6.60;;
21334;SDS011;10826;52.536;13.432;2022-09-09T03:32:52;6.90;;;6.33;;
21334;SDS011;10826;52.536;13.432;2022-09-09T03:35:21;6.33;;;5.83;;
21334;SDS011;10826;52.536;13.432;2022-09-09T03:37:48;6.33;;;5.73;;
21334;SDS011;10826;52.536;13.432;2022-09-09T03:40:14;6.73;;;6.10;;
21334;SDS011;10826;52.536;13.432;2022-09-09T03:42:44;5.90;;;5.33;;
21334;SDS011;10826;52.536;13.432;2022-09-09T03:45:10;8.73;;;7.03;;
21334;SDS011;10826;52.536;13.432;2022-09-09T03:47:37;6.30;;;5.90;;
21334;SDS011;10826;52.536;13.432;2022-09-09T03:50:04;6.63;;;6.13;;
21334;SDS011;10826;52.536;13.432;2022-09-09T03:52:37;5.63;;;5.20;;
21334;SDS011;10826;52.536;13.432;2022-09-09T03:55:06;6.97;;;5.40;;
21334;SDS011;10826;52.536;13.432;2022-09-09T03:57:33;6.17;;;5.67;;
21334;SDS011;10826;52.536;13.432;2022-09-09T04:00:02;5.50;;;5.00;;
21334;SDS011;10826;52.536;13.432;2022-09-09T04:02:30;6.37;;;5.77;;
21334;SDS011;10826;52.536;13.432;2022-09-09T04:04:56;6.50;;;6.00;;
21334;SDS011;10826;52.536;13.432;2022-09-09T04:07:23;7.33;;;5.37;;
21334;SDS011;10826;52.536;13.432;2022-09-09T04:09:50;5.67;;;5.27;;
21334;SDS011;10826;52.536;13.432;2022-09-09T04:12:16;6.13;;;5.27;;
21334;SDS011;10826;52.536;13.432;2022-09-09T04:14:42;6.57;;;5.27;;
21334;SDS011;10826;52.536;13.432;2022-09-09T04:17:08;5.90;;;5.40;;
21334;SDS011;10826;52.536;13.432;2022-09-09T04:19:35;8.03;;;5.17;;
21334;SDS011;10826;52.536;13.432;2022-09-09T04:22:01;8.07;;;5.67;;
21334;SDS011;10826;52.536;13.432;2022-09-09T04:24:26;5.43;;;5.00;;
21334;SDS011;10826;52.536;13.432;2022-09-09T04:26:54;7.00;;;4.90;;
21334;SDS011;10826;52.536;13.432;2022-09-09T04:29:20;5.40;;;5.00;;
21334;SDS011;10826;52.536;13.432;2022-09-09T04:31:46;6.47;;;5.97;;
21334;SDS011;10826;52.536;13.432;2022-09-09T04:34:12;6.73;;;5.20;;
21334;SDS011;10826;52.536;13.432;2022-09-09T04:36:38;5.40;;;5.00;;
21334;SDS011;10826;52.536;13.432;2022-09-09T04:39:05;5.77;;;5.07;;
21334;SDS011;10826;52.536;13.432;2022-09-09T04:41:31;5.27;;;4.77;;
21334;SDS011;10826;52.536;13.432;2022-09-09T04:43:58;6.60;;;5.63;;
21334;SDS011;10826;52.536;13.432;2022-09-09T04:46:25;6.10;;;5.27;;
21334;SDS011;10826;52.536;13.432;2022-09-09T04:48:58;5.80;;;5.40;;
21334;SDS011;10826;52.536;13.432;2022-09-09T04:51:24;7.90;;;4.60;;
21334;SDS011;10826;52.536;13.432;2022-09-09T04:53:53;5.87;;;4.27;;
21334;SDS011;10826;52.536;13.432;2022-09-09T04:56:19;4.70;;;4.30;;
21334;SDS011;10826;52.536;13.432;2022-09-09T04:58:46;5.03;;;4.53;;
21334;SDS011;10826;52.536;13.432;2022-09-09T05:01:16;7.40;;;4.70;;
21334;SDS011;10826;52.536;13.432;2022-09-09T05:03:46;6.97;;;4.60;;
21334;SDS011;10826;52.536;13.432;2022-09-09T05:06:14;4.87;;;4.47;;
21334;SDS011;10826;52.536;13.432;2022-09-09T05:08:43;5.57;;;4.83;;
21334;SDS011;10826;52.536;13.432;2022-09-09T05:11:16;4.70;;;4.30;;
21334;SDS011;10826;52.536;13.432;2022-09-09T05:13:54;6.10;;;5.60;;
21334;SDS011;10826;52.536;13.432;2022-09-09T05:16:21;6.80;;;4.67;;
21334;SDS011;10826;52.536;13.432;2022-09-09T05:18:48;5.37;;;4.57;;
21334;SDS011;10826;52.536;13.432;2022-09-09T05:21:17;8.87;;;4.77;;
21334;SDS011;10826;52.536;13.432;2022-09-09T05:23:46;5.53;;;4.47;;
21334;SDS011;10826;52.536;13.432;2022-09-09T05:26:14;5.50;;;4.40;;
21334;SDS011;10826;52.536;13.432;2022-09-09T05:28:44;8.63;;;4.60;;
21334;SDS011;10826;52.536;13.432;2022-09-09T05:31:12;4.47;;;4.13;;
21334;SDS011;10826;52.536;13.432;2022-09-09T05:33:43;5.83;;;4.50;;
21334;SDS011;10826;52.536;13.432;2022-09-09T05:36:15;4.87;;;4.27;;
21334;SDS011;10826;52.536;13.432;2022-09-09T05:38:45;5.50;;;4.47;;
21334;SDS011;10826;52.536;13.432;2022-09-09T05:41:13;6.67;;;3.90;;
21334;SDS011;10826;52.536;13.432;2022-09-09T05:43:43;7.43;;;4.33;;
21334;SDS011;10826;52.536;13.432;2022-09-09T05:46:14;4.87;;;4.27;;
21334;SDS011;10826;52.536;13.432;2022-09-09T05:49:14;4.90;;;4.43;;
21334;SDS011;10826;52.536;13.432;2022-09-09T05:51:41;4.67;;;3.67;;
21334;SDS011;10826;52.536;13.432;2022-09-09T05:54:08;4.80;;;3.70;;
21334;SDS011;10826;52.536;13.432;2022-09-09T05:56:34;6.07;;;4.07;;
21334;SDS011;10826;52.536;13.432;2022-09-09T05:59:01;6.50;;;3.80;;
21334;SDS011;10826;52.536;13.432;2022-09-09T06:01:31;5.03;;;3.90;;
21334;SDS011;10826;52.536;13.432;2022-09-09T06:04:01;4.73;;;3.83;;
21334;SDS011;10826;52.536;13.432;2022-09-09T06:06:35;4.33;;;3.97;;
21334;SDS011;10826;52.536;13.432;2022-09-09T06:09:05;4.20;;;3.90;;
21334;SDS011;10826;52.536;13.432;2022-09-09T06:11:35;4.53;;;4.00;;
21334;SDS011;10826;52.536;13.432;2022-09-09T06:14:04;5.30;;;3.77;;
21334;SDS011;10826;52.536;13.432;2022-09-09T06:16:32;4.47;;;4.17;;
21334;SDS011;10826;52.536;13.432;2022-09-09T06:19:03;4.07;;;3.83;;
21334;SDS011;10826;52.536;13.432;2022-09-09T06:21:36;5.00;;;3.90;;
21334;SDS011;10826;52.536;13.432;2022-09-09T06:24:03;3.83;;;3.57;;
21334;SDS011;10826;52.536;13.432;2022-09-09T06:26:32;3.33;;;2.90;;
21334;SDS011;10826;52.536;13.432;2022-09-09T06:29:06;6.10;;;3.40;;
21334;SDS011;10826;52.536;13.432;2022-09-09T06:31:34;6.30;;;3.47;;
21334;SDS011;10826;52.536;13.432;2022-09-09T06:34:04;3.20;;;2.90;;
21334;SDS011;10826;52.536;13.432;2022-09-09T06:36:33;3.00;;;2.80;;
21334;SDS011;10826;52.536;13.432;2022-09-09T06:39:02;4.97;;;3.10;;
21334;SDS011;10826;52.536;13.432;2022-09-09T06:41:30;3.90;;;3.50;;
21334;SDS011;10826;52.536;13.432;2022-09-09T06:43:58;3.47;;;3.17;;
21334;SDS011;10826;52.536;13.432;2022-09-09T06:46:27;7.47;;;3.00;;
21334;SDS011;10826;52.536;13.432;2022-09-09T06:48:56;4.60;;;3.40;;
21334;SDS011;10826;52.536;13.432;2022-09-09T06:51:26;5.53;;;3.27;;
21334;SDS011;10826;52.536;13.432;2022-09-09T06:53:58;3.30;;;2.90;;
21334;SDS011;10826;52.536;13.432;2022-09-09T06:56:28;5.57;;;3.03;;
21334;SDS011;10826;52.536;13.432;2022-09-09T06:59:04;3.57;;;3.37;;
21334;SDS011;10826;52.536;13.432;2022-09-09T07:01:37;5.43;;;3.33;;
21334;SDS011;10826;52.536;13.432;2022-09-09T07:04:09;3.10;;;2.80;;
21334;SDS011;10826;52.536;13.432;2022-09-09T07:06:37;4.50;;;3.17;;
21334;SDS011;10826;52.536;13.432;2022-09-09T07:09:09;3.10;;;2.70;;
21334;SDS011;10826;52.536;13.432;2022-09-09T07:11:48;3.47;;;2.80;;
21334;SDS011;10826;52.536;13.432;2022-09-09T07:14:19;5.67;;;2.83;;
21334;SDS011;10826;52.536;13.432;2022-09-09T07:16:46;5.07;;;2.70;;
21334;SDS011;10826;52.536;13.432;2022-09-09T07:19:12;3.33;;;2.60;;
21334;SDS011;10826;52.536;13.432;2022-09-09T07:21:40;2.70;;;2.50;;
21334;SDS011;10826;52.536;13.432;2022-09-09T07:24:08;4.10;;;2.80;;
21334;SDS011;10826;52.536;13.432;2022-09-09T07:26:41;5.10;;;2.70;;
21334;SDS011;10826;52.536;13.432;2022-09-09T07:29:07;4.97;;;3.67;;
21334;SDS011;10826;52.536;13.432;2022-09-09T07:31:39;6.60;;;3.03;;
21334;SDS011;10826;52.536;13.432;2022-09-09T07:34:09;4.90;;;2.73;;
21334;SDS011;10826;52.536;13.432;2022-09-09T07:36:39;3.80;;;2.70;;
21334;SDS011;10826;52.536;13.432;2022-09-09T07:39:14;3.37;;;2.50;;
21334;SDS011;10826;52.536;13.432;2022-09-09T07:41:45;3.87;;;3.13;;
21334;SDS011;10826;52.536;13.432;2022-09-09T07:44:15;5.40;;;2.40;;
21334;SDS011;10826;52.536;13.432;2022-09-09T07:46:47;5.37;;;2.60;;
21334;SDS011;10826;52.536;13.432;2022-09-09T07:49:21;3.00;;;2.50;;
21334;SDS011;10826;52.536;13.432;2022-09-09T07:51:47;5.30;;;2.13;;
21334;SDS011;10826;52.536;13.432;2022-09-09T07:54:15;3.60;;;2.70;;
21334;SDS011;10826;52.536;13.432;2022-09-09T07:56:48;2.97;;;1.97;;
21334;SDS011;10826;52.536;13.432;2022-09-09T07:59:16;4.47;;;2.53;;
21334;SDS011;10826;52.536;13.432;2022-09-09T08:01:45;3.03;;;2.30;;
21334;SDS011;10826;52.536;13.432;2022-09-09T08:04:20;2.80;;;2.30;;
21334;SDS011;10826;52.536;13.432;2022-09-09T08:06:53;2.47;;;2.03;;
21334;SDS011;10826;52.536;13.432;2022-09-09T08:09:26;3.07;;;2.03;;
21334;SDS011;10826;52.536;13.432;2022-09-09T08:11:54;1.97;;;1.67;;
21334;SDS011;10826;52.536;13.432;2022-09-09T08:14:22;3.23;;;2.30;;
21334;SDS011;10826;52.536;13.432;2022-09-09T08:16:49;4.07;;;2.27;;
21334;SDS011;10826;52.536;13.432;2022-09-09T08:19:23;3.60;;;2.30;;
21334;SDS011;10826;52.536;13.432;2022-09-09T08:21:49;3.67;;;2.07;;
21334;SDS011;10826;52.536;13.432;2022-09-09T08:24:15;1.80;;;1.70;;
21334;SDS011;10826;52.536;13.432;2022-09-09T08:26:43;2.03;;;1.70;;
21334;SDS011;10826;52.536;13.432;2022-09-09T08:29:14;2.73;;;1.83;;
21334;SDS011;10826;52.536;13.432;2022-09-09T08:31:45;5.00;;;2.40;;
21334;SDS011;10826;52.536;13.432;2022-09-09T08:34:19;2.37;;;2.17;;
21334;SDS011;10826;52.536;13.432;2022-09-09T08:36:47;2.90;;;2.40;;
21334;SDS011;10826;52.536;13.432;2022-09-09T08:39:16;3.83;;;2.20;;
21334;SDS011;10826;52.536;13.432;2022-09-09T08:50:30;3.73;;;2.00;;
21334;SDS011;10826;52.536;13.432;2022-09-09T08:58:29;3.10;;;2.07;;
21334;SDS011;10826;52.536;13.432;2022-09-09T09:01:11;3.87;;;2.13;;
21334;SDS011;10826;52.536;13.432;2022-09-09T09:10:34;3.57;;;2.20;;
21334;SDS011;10826;52.536;13.432;2022-09-09T09:16:07;2.97;;;2.00;;
21334;SDS011;10826;52.536;13.432;2022-09-09T09:19:15;3.53;;;2.00;;
21334;SDS011;10826;52.536;13.432;2022-09-09T09:21:46;3.57;;;2.20;;
21334;SDS011;10826;52.536;13.432;2022-09-09T09:28:07;2.13;;;1.93;;
21334;SDS011;10826;52.536;13.432;2022-09-09T09:30:21;2.20;;;1.90;;
21334;SDS011;10826;52.536;13.432;2022-09-09T09:32:59;4.13;;;1.93;;
21334;SDS011;10826;52.536;13.432;2022-09-09T09:35:36;1.73;;;1.60;;
21334;SDS011;10826;52.536;13.432;2022-09-09T09:38:11;3.73;;;2.03;;
21334;SDS011;10826;52.536;13.432;2022-09-09T09:40:54;2.87;;;1.73;;
21334;SDS011;10826;52.536;13.432;2022-09-09T09:43:26;1.90;;;1.70;;
21334;SDS011;10826;52.536;13.432;2022-09-09T09:45:59;3.20;;;1.90;;
21334;SDS011;10826;52.536;13.432;2022-09-09T09:48:29;9.10;;;2.20;;
21334;SDS011;10826;52.536;13.432;2022-09-09T09:50:59;2.13;;;1.43;;
21334;SDS011;10826;52.536;13.432;2022-09-09T09:53:34;3.03;;;1.90;;
21334;SDS011;10826;52.536;13.432;2022-09-09T09:56:05;3.70;;;1.30;;
21334;SDS011;10826;52.536;13.432;2022-09-09T10:01:26;1.70;;;1.50;;
21334;SDS011;10826;52.536;13.432;2022-09-09T10:06:41;1.80;;;1.70;;
21334;SDS011;10826;52.536;13.432;2022-09-09T10:09:24;2.33;;;1.70;;
21334;SDS011;10826;52.536;13.432;2022-09-09T10:15:00;1.83;;;1.50;;
21334;SDS011;10826;52.536;13.432;2022-09-09T10:27:19;3.37;;;1.80;;
21334;SDS011;10826;52.536;13.432;2022-09-09T10:30:16;3.73;;;2.20;;
21334;SDS011;10826;52.536;13.432;2022-09-09T10:33:37;4.03;;;1.90;;
21334;SDS011;10826;52.536;13.432;2022-09-09T10:39:01;2.13;;;1.43;;
21334;SDS011;10826;52.536;13.432;2022-09-09T10:42:14;2.30;;;1.63;;
21334;SDS011;10826;52.536;13.432;2022-09-09T10:44:55;2.83;;;1.80;;
21334;SDS011;10826;52.536;13.432;2022-09-09T10:48:02;1.93;;;1.40;;
21334;SDS011;10826;52.536;13.432;2022-09-09T10:51:00;2.93;;;1.60;;
21334;SDS011;10826;52.536;13.432;2022-09-09T10:54:04;2.53;;;1.73;;
21334;SDS011;10826;52.536;13.432;2022-09-09T10:57:25;1.30;;;1.20;;
21334;SDS011;10826;52.536;13.432;2022-09-09T11:00:22;2.33;;;1.27;;
21334;SDS011;10826;52.536;13.432;2022-09-09T11:03:21;2.80;;;1.13;;
21334;SDS011;10826;52.536;13.432;2022-09-09T11:06:02;1.80;;;1.37;;
21334;SDS011;10826;52.536;13.432;2022-09-09T11:08:36;46.67;;;7.30;;
21334;SDS011;10826;52.536;13.432;2022-09-09T11:17:15;2.20;;;1.80;;
21334;SDS011;10826;52.536;13.432;2022-09-09T11:20:11;1.93;;;1.70;;
21334;SDS011;10826;52.536;13.432;2022-09-09T11:22:48;2.60;;;1.73;;
21334;SDS011;10826;52.536;13.432;2022-09-09T11:25:43;3.00;;;1.87;;
21334;SDS011;10826;52.536;13.432;2022-09-09T11:28:32;2.27;;;1.60;;
21334;SDS011;10826;52.536;13.432;2022-09-09T11:40:24;1.93;;;1.40;;
21334;SDS011;10826;52.536;13.432;2022-09-09T11:45:30;3.20;;;1.90;;
21334;SDS011;10826;52.536;13.432;2022-09-09T11:48:01;3.20;;;1.70;;
21334;SDS011;10826;52.536;13.432;2022-09-09T11:50:36;1.20;;;1.17;;
21334;SDS011;10826;52.536;13.432;2022-09-09T11:56:07;2.87;;;1.50;;
21334;SDS011;10826;52.536;13.432;2022-09-09T11:58:41;3.50;;;1.70;;
21334;SDS011;10826;52.536;13.432;2022-09-09T12:01:43;3.90;;;1.50;;
21334;SDS011;10826;52.536;13.432;2022-09-09T12:04:15;2.13;;;1.70;;
21334;SDS011;10826;52.536;13.432;2022-09-09T12:06:53;1.40;;;1.30;;
21334;SDS011;10826;52.536;13.432;2022-09-09T12:09:46;1.33;;;1.13;;
21334;SDS011;10826;52.536;13.432;2022-09-09T12:12:22;2.87;;;1.27;;
21334;SDS011;10826;52.536;13.432;2022-09-09T12:14:55;4.53;;;1.27;;
21334;SDS011;10826;52.536;13.432;2022-09-09T12:17:40;1.13;;;0.90;;
21334;SDS011;10826;52.536;13.432;2022-09-09T12:23:04;1.20;;;0.82;;
21334;SDS011;10826;52.536;13.432;2022-09-09T12:25:49;1.30;;;1.02;;
21334;SDS011;10826;52.536;13.432;2022-09-09T12:34:32;1.40;;;1.30;;
21334;SDS011;10826;52.536;13.432;2022-09-09T12:37:23;1.63;;;1.45;;
21334;SDS011;10826;52.536;13.432;2022-09-09T12:40:04;1.60;;;1.25;;
21334;SDS011;10826;52.536;13.432;2022-09-09T12:42:49;2.53;;;1.10;;
21334;SDS011;10826;52.536;13.432;2022-09-09T12:45:16;2.35;;;1.38;;
21334;SDS011;10826;52.536;13.432;2022-09-09T12:50:29;1.48;;;1.00;;
21334;SDS011;10826;52.536;13.432;2022-09-09T12:53:24;1.17;;;1.10;;
21334;SDS011;10826;52.536;13.432;2022-09-09T12:56:04;1.00;;;1.00;;
21334;SDS011;10826;52.536;13.432;2022-09-09T12:58:45;3.95;;;1.05;;
21334;SDS011;10826;52.536;13.432;2022-09-09T13:01:23;3.50;;;1.20;;
21334;SDS011;10826;52.536;13.432;2022-09-09T13:03:53;1.73;;;1.20;;
21334;SDS011;10826;52.536;13.432;2022-09-09T13:06:25;1.88;;;1.23;;
21334;SDS011;10826;52.536;13.432;2022-09-09T13:08:57;0.85;;;0.85;;
21334;SDS011;10826;52.536;13.432;2022-09-09T13:14:15;2.00;;;1.42;;
21334;SDS011;10826;52.536;13.432;2022-09-09T13:16:56;1.80;;;1.00;;
21334;SDS011;10826;52.536;13.432;2022-09-09T13:19:29;1.73;;;1.00;;
21334;SDS011;10826;52.536;13.432;2022-09-09T13:22:23;1.20;;;1.10;;
21334;SDS011;10826;52.536;13.432;2022-09-09T13:27:38;1.08;;;0.95;;
21334;SDS011;10826;52.536;13.432;2022-09-09T13:30:24;2.10;;;1.17;;
21334;SDS011;10826;52.536;13.432;2022-09-09T13:35:51;0.95;;;0.82;;
21334;SDS011;10826;52.536;13.432;2022-09-09T13:38:36;1.35;;;0.82;;
21334;SDS011;10826;52.536;13.432;2022-09-09T13:41:21;1.88;;;1.13;;
21334;SDS011;10826;52.536;13.432;2022-09-09T13:43:50;1.45;;;0.85;;
21334;SDS011;10826;52.536;13.432;2022-09-09T13:51:38;3.70;;;1.35;;
21334;SDS011;10826;52.536;13.432;2022-09-09T13:54:13;6.22;;;1.75;;
21334;SDS011;10826;52.536;13.432;2022-09-09T13:56:42;2.05;;;1.60;;
21334;SDS011;10826;52.536;13.432;2022-09-09T13:59:10;1.45;;;1.35;;
21334;SDS011;10826;52.536;13.432;2022-09-09T14:01:43;1.10;;;0.98;;
21334;SDS011;10826;52.536;13.432;2022-09-09T14:04:12;1.38;;;0.95;;
21334;SDS011;10826;52.536;13.432;2022-09-09T14:06:38;1.45;;;1.08;;
21334;SDS011;10826;52.536;13.432;2022-09-09T14:09:06;1.20;;;0.93;;
21334;SDS011;10826;52.536;13.432;2022-09-09T14:11:37;2.35;;;1.20;;
21334;SDS011;10826;52.536;13.432;2022-09-09T14:14:04;2.20;;;1.15;;
21334;SDS011;10826;52.536;13.432;2022-09-09T14:16:31;2.08;;;1.17;;
21334;SDS011;10826;52.536;13.432;2022-09-09T14:18:58;3.92;;;1.40;;
21334;SDS011;10826;52.536;13.432;2022-09-09T14:21:25;2.17;;;1.10;;
21334;SDS011;10826;52.536;13.432;2022-09-09T14:23:52;4.30;;;1.50;;
21334;SDS011;10826;52.536;13.432;2022-09-09T14:26:23;1.48;;;1.15;;
21334;SDS011;10826;52.536;13.432;2022-09-09T14:28:51;1.38;;;1.20;;
21334;SDS011;10826;52.536;13.432;2022-09-09T14:31:17;2.08;;;1.10;;
21334;SDS011;10826;52.536;13.432;2022-09-09T14:33:44;3.95;;;1.45;;
21334;SDS011;10826;52.536;13.432;2022-09-09T14:36:10;1.83;;;1.10;;
21334;SDS011;10826;52.536;13.432;2022-09-09T14:38:39;3.67;;;1.20;;
21334;SDS011;10826;52.536;13.432;2022-09-09T14:41:07;2.20;;;1.30;;
21334;SDS011;10826;52.536;13.432;2022-09-09T14:43:39;3.10;;;1.42;;
21334;SDS011;10826;52.536;13.432;2022-09-09T14:46:09;1.63;;;0.77;;
21334;SDS011;10826;52.536;13.432;2022-09-09T14:48:38;3.13;;;1.35;;
21334;SDS011;10826;52.536;13.432;2022-09-09T14:51:15;1.67;;;1.23;;
21334;SDS011;10826;52.536;13.432;2022-09-09T14:53:48;3.15;;;1.33;;
21334;SDS011;10826;52.536;13.432;2022-09-09T14:56:21;2.08;;;1.42;;
21334;SDS011;10826;52.536;13.432;2022-09-09T14:58:55;2.33;;;1.73;;
21334;SDS011;10826;52.536;13.432;2022-09-09T15:01:23;2.88;;;1.45;;
21334;SDS011;10826;52.536;13.432;2022-09-09T15:03:57;2.15;;;1.50;;
21334;SDS011;10826;52.536;13.432;2022-09-09T15:06:30;4.25;;;1.50;;
21334;SDS011;10826;52.536;13.432;2022-09-09T15:09:00;1.80;;;1.60;;
21334;SDS011;10826;52.536;13.432;2022-09-09T15:11:27;5.07;;;1.80;;
21334;SDS011;10826;52.536;13.432;2022-09-09T15:13:58;1.85;;;1.25;;
21334;SDS011;10826;52.536;13.432;2022-09-09T15:16:27;3.65;;;1.60;;
21334;SDS011;10826;52.536;13.432;2022-09-09T15:18:55;3.58;;;1.70;;
21334;SDS011;10826;52.536;13.432;2022-09-09T15:21:26;4.93;;;1.95;;
21334;SDS011;10826;52.536;13.432;2022-09-09T15:24:03;6.28;;;1.65;;
21334;SDS011;10826;52.536;13.432;2022-09-09T15:26:31;3.53;;;1.70;;
21334;SDS011;10826;52.536;13.432;2022-09-09T15:28:59;2.35;;;1.70;;
21334;SDS011;10826;52.536;13.432;2022-09-09T15:31:29;1.40;;;1.30;;
21334;SDS011;10826;52.536;13.432;2022-09-09T15:33:58;1.45;;;1.30;;
21334;SDS011;10826;52.536;13.432;2022-09-09T15:36:31;1.40;;;1.20;;
21334;SDS011;10826;52.536;13.432;2022-09-09T15:39:00;1.63;;;1.45;;
21334;SDS011;10826;52.536;13.432;2022-09-09T15:41:29;1.65;;;1.45;;
21334;SDS011;10826;52.536;13.432;2022-09-09T15:43:57;1.75;;;1.20;;
21334;SDS011;10826;52.536;13.432;2022-09-09T15:49:16;1.95;;;1.10;;
21334;SDS011;10826;52.536;13.432;2022-09-09T15:51:53;1.10;;;1.10;;
21334;SDS011;10826;52.536;13.432;2022-09-09T15:54:23;1.88;;;1.48;;
21334;SDS011;10826;52.536;13.432;2022-09-09T15:56:52;2.00;;;1.38;;
21334;SDS011;10826;52.536;13.432;2022-09-09T15:59:23;1.70;;;1.30;;
21334;SDS011;10826;52.536;13.432;2022-09-09T16:01:55;1.38;;;1.02;;
21334;SDS011;10826;52.536;13.432;2022-09-09T16:04:22;3.08;;;2.40;;
21334;SDS011;10826;52.536;13.432;2022-09-09T16:06:59;2.38;;;1.90;;
21334;SDS011;10826;52.536;13.432;2022-09-09T16:09:29;3.13;;;1.33;;
21334;SDS011;10826;52.536;13.432;2022-09-09T16:11:58;4.82;;;1.58;;
21334;SDS011;10826;52.536;13.432;2022-09-09T16:14:26;2.73;;;1.20;;
21334;SDS011;10826;52.536;13.432;2022-09-09T16:16:54;2.92;;;0.90;;
21334;SDS011;10826;52.536;13.432;2022-09-09T16:19:20;1.57;;;1.37;;
21334;SDS011;10826;52.536;13.432;2022-09-09T16:21:48;1.93;;;1.60;;
21334;SDS011;10826;52.536;13.432;2022-09-09T16:24:16;2.40;;;1.37;;
21334;SDS011;10826;52.536;13.432;2022-09-09T16:26:48;1.80;;;1.70;;
21334;SDS011;10826;52.536;13.432;2022-09-09T16:29:17;3.53;;;1.40;;
21334;SDS011;10826;52.536;13.432;2022-09-09T16:31:46;1.90;;;1.80;;
21334;SDS011;10826;52.536;13.432;2022-09-09T16:34:14;1.77;;;1.57;;
21334;SDS011;10826;52.536;13.432;2022-09-09T16:36:42;2.10;;;1.60;;
21334;SDS011;10826;52.536;13.432;2022-09-09T16:39:11;1.93;;;1.50;;
21334;SDS011;10826;52.536;13.432;2022-09-09T16:41:42;2.17;;;1.60;;
21334;SDS011;10826;52.536;13.432;2022-09-09T16:44:11;2.30;;;1.43;;
21334;SDS011;10826;52.536;13.432;2022-09-09T16:46:41;2.40;;;1.67;;
21334;SDS011;10826;52.536;13.432;2022-09-09T16:49:10;2.37;;;1.90;;
21334;SDS011;10826;52.536;13.432;2022-09-09T16:51:41;2.20;;;1.60;;
21334;SDS011;10826;52.536;13.432;2022-09-09T16:54:20;4.17;;;1.60;;
21334;SDS011;10826;52.536;13.432;2022-09-09T16:56:49;2.50;;;1.70;;
21334;SDS011;10826;52.536;13.432;2022-09-09T16:59:16;2.40;;;1.80;;
21334;SDS011;10826;52.536;13.432;2022-09-09T17:01:46;2.93;;;2.20;;
21334;SDS011;10826;52.536;13.432;2022-09-09T17:04:20;2.37;;;2.13;;
21334;SDS011;10826;52.536;13.432;2022-09-09T17:06:51;3.50;;;1.80;;
21334;SDS011;10826;52.536;13.432;2022-09-09T17:09:20;3.73;;;1.63;;
21334;SDS011;10826;52.536;13.432;2022-09-09T17:11:48;1.87;;;1.60;;
21334;SDS011;10826;52.536;13.432;2022-09-09T17:14:19;2.43;;;1.60;;
21334;SDS011;10826;52.536;13.432;2022-09-09T17:16:46;3.50;;;2.00;;
21334;SDS011;10826;52.536;13.432;2022-09-09T17:19:13;2.53;;;1.90;;
21334;SDS011;10826;52.536;13.432;2022-09-09T17:21:40;2.20;;;2.00;;
21334;SDS011;10826;52.536;13.432;2022-09-09T17:24:06;3.13;;;1.70;;
21334;SDS011;10826;52.536;13.432;2022-09-09T17:26:36;3.70;;;1.50;;
21334;SDS011;10826;52.536;13.432;2022-09-09T17:29:03;6.60;;;2.00;;
21334;SDS011;10826;52.536;13.432;2022-09-09T17:31:29;3.83;;;1.70;;
21334;SDS011;10826;52.536;13.432;2022-09-09T17:33:57;2.43;;;1.47;;
21334;SDS011;10826;52.536;13.432;2022-09-09T17:36:28;1.73;;;1.20;;
21334;SDS011;10826;52.536;13.432;2022-09-09T17:38:58;1.80;;;1.40;;
21334;SDS011;10826;52.536;13.432;2022-09-09T17:41:29;3.10;;;1.53;;